WEATHER/FLIGHT PLANNING

Hattiesburg Radar

 

 

 

 

Weather Links

Flight Planning Links

 

METAR

2018/09/23 16:53 KHBG 231653Z AUTO 13008KT 10SM FEW037 31/22 A3000 RMK AO2 SLP156 T03060217 TSNO

TAF

2018/09/23 12:30 TAF AMD KHBG 231228Z 2312/2412 13003KT 6SM BR FEW015 TEMPO 2312/2314 1/2SM FG BKN003 FM231400 15004KT P6SM SCT025 FM231800 15005KT P6SM VCTS SCT050CB FM240000 14003KT P6SM SCT100 FM240900 14003KT P6SM BKN015